sensor_id;sensor_type;location;lat;lon;timestamp;P1;durP1;ratioP1;P2;durP2;ratioP2
54037;SDS011;39954;48.844;9.726;2023-07-22T00:00:34;31.08;;;9.82;;
54037;SDS011;39954;48.844;9.726;2023-07-22T00:01:37;40.15;;;9.82;;
54037;SDS011;39954;48.844;9.726;2023-07-22T00:02:42;84.70;;;14.82;;
54037;SDS011;39954;48.844;9.726;2023-07-22T00:03:47;47.40;;;12.32;;
54037;SDS011;39954;48.844;9.726;2023-07-22T00:04:52;62.60;;;12.48;;
54037;SDS011;39954;48.844;9.726;2023-07-22T00:06:04;38.90;;;10.48;;
54037;SDS011;39954;48.844;9.726;2023-07-22T00:07:09;27.50;;;9.13;;
54037;SDS011;39954;48.844;9.726;2023-07-22T00:08:12;26.13;;;8.77;;
54037;SDS011;39954;48.844;9.726;2023-07-22T00:09:17;23.00;;;8.20;;
54037;SDS011;39954;48.844;9.726;2023-07-22T00:10:19;49.47;;;10.45;;
54037;SDS011;39954;48.844;9.726;2023-07-22T00:11:24;23.20;;;8.02;;
54037;SDS011;39954;48.844;9.726;2023-07-22T00:12:26;23.33;;;8.20;;
54037;SDS011;39954;48.844;9.726;2023-07-22T00:13:32;19.25;;;7.35;;
54037;SDS011;39954;48.844;9.726;2023-07-22T00:14:39;19.23;;;7.35;;
54037;SDS011;39954;48.844;9.726;2023-07-22T00:15:45;41.28;;;9.93;;
54037;SDS011;39954;48.844;9.726;2023-07-22T00:16:47;35.10;;;8.40;;
54037;SDS011;39954;48.844;9.726;2023-07-22T00:17:52;43.55;;;9.27;;
54037;SDS011;39954;48.844;9.726;2023-07-22T00:18:58;33.25;;;8.68;;
54037;SDS011;39954;48.844;9.726;2023-07-22T00:20:03;37.08;;;8.52;;
54037;SDS011;39954;48.844;9.726;2023-07-22T00:21:07;58.70;;;10.60;;
54037;SDS011;39954;48.844;9.726;2023-07-22T00:22:12;33.55;;;8.40;;
54037;SDS011;39954;48.844;9.726;2023-07-22T00:23:15;31.77;;;7.85;;
54037;SDS011;39954;48.844;9.726;2023-07-22T00:24:19;32.85;;;7.93;;
54037;SDS011;39954;48.844;9.726;2023-07-22T00:25:23;52.28;;;9.85;;
54037;SDS011;39954;48.844;9.726;2023-07-22T00:26:29;32.08;;;7.75;;
54037;SDS011;39954;48.844;9.726;2023-07-22T00:27:31;29.77;;;6.85;;
54037;SDS011;39954;48.844;9.726;2023-07-22T00:28:35;38.70;;;8.45;;
54037;SDS011;39954;48.844;9.726;2023-07-22T00:29:38;36.25;;;8.27;;
54037;SDS011;39954;48.844;9.726;2023-07-22T00:30:42;50.40;;;9.02;;
54037;SDS011;39954;48.844;9.726;2023-07-22T00:31:45;44.45;;;8.68;;
54037;SDS011;39954;48.844;9.726;2023-07-22T00:32:50;46.78;;;8.68;;
54037;SDS011;39954;48.844;9.726;2023-07-22T00:33:53;49.80;;;9.07;;
54037;SDS011;39954;48.844;9.726;2023-07-22T00:35:00;44.45;;;8.30;;
54037;SDS011;39954;48.844;9.726;2023-07-22T00:36:02;46.95;;;8.52;;
54037;SDS011;39954;48.844;9.726;2023-07-22T00:37:08;38.53;;;8.02;;
54037;SDS011;39954;48.844;9.726;2023-07-22T00:38:10;27.10;;;6.30;;
54037;SDS011;39954;48.844;9.726;2023-07-22T00:39:15;26.85;;;6.78;;
54037;SDS011;39954;48.844;9.726;2023-07-22T00:40:17;28.08;;;7.18;;
54037;SDS011;39954;48.844;9.726;2023-07-22T00:41:21;27.80;;;6.45;;
54037;SDS011;39954;48.844;9.726;2023-07-22T00:42:24;18.48;;;6.25;;
54037;SDS011;39954;48.844;9.726;2023-07-22T00:43:28;22.52;;;6.65;;
54037;SDS011;39954;48.844;9.726;2023-07-22T00:44:31;24.67;;;6.65;;
54037;SDS011;39954;48.844;9.726;2023-07-22T00:45:35;35.75;;;7.78;;
54037;SDS011;39954;48.844;9.726;2023-07-22T00:46:38;26.88;;;6.50;;
54037;SDS011;39954;48.844;9.726;2023-07-22T00:47:42;31.40;;;7.00;;
54037;SDS011;39954;48.844;9.726;2023-07-22T00:48:46;28.60;;;6.72;;
54037;SDS011;39954;48.844;9.726;2023-07-22T00:49:52;30.63;;;6.90;;
54037;SDS011;39954;48.844;9.726;2023-07-22T00:50:58;40.95;;;8.15;;
54037;SDS011;39954;48.844;9.726;2023-07-22T00:52:03;53.97;;;8.77;;
54037;SDS011;39954;48.844;9.726;2023-07-22T00:53:06;36.17;;;7.88;;
54037;SDS011;39954;48.844;9.726;2023-07-22T00:54:08;47.63;;;9.02;;
54037;SDS011;39954;48.844;9.726;2023-07-22T00:55:13;23.30;;;6.85;;
54037;SDS011;39954;48.844;9.726;2023-07-22T00:56:16;21.50;;;6.63;;
54037;SDS011;39954;48.844;9.726;2023-07-22T00:57:21;63.35;;;10.30;;
54037;SDS011;39954;48.844;9.726;2023-07-22T00:58:23;16.33;;;6.20;;
54037;SDS011;39954;48.844;9.726;2023-07-22T00:59:28;19.27;;;5.97;;
54037;SDS011;39954;48.844;9.726;2023-07-22T01:00:30;31.10;;;7.03;;
54037;SDS011;39954;48.844;9.726;2023-07-22T01:01:35;30.65;;;6.97;;
54037;SDS011;39954;48.844;9.726;2023-07-22T01:02:37;19.02;;;6.25;;
54037;SDS011;39954;48.844;9.726;2023-07-22T01:03:42;37.35;;;7.72;;
54037;SDS011;39954;48.844;9.726;2023-07-22T01:04:45;22.33;;;6.68;;
54037;SDS011;39954;48.844;9.726;2023-07-22T01:05:51;27.95;;;6.57;;
54037;SDS011;39954;48.844;9.726;2023-07-22T01:06:59;42.05;;;8.35;;
54037;SDS011;39954;48.844;9.726;2023-07-22T01:08:05;53.88;;;9.80;;
54037;SDS011;39954;48.844;9.726;2023-07-22T01:09:07;35.97;;;7.57;;
54037;SDS011;39954;48.844;9.726;2023-07-22T01:10:12;22.20;;;6.65;;
54037;SDS011;39954;48.844;9.726;2023-07-22T01:11:14;33.47;;;7.03;;
54037;SDS011;39954;48.844;9.726;2023-07-22T01:12:26;50.53;;;8.68;;
54037;SDS011;39954;48.844;9.726;2023-07-22T01:13:28;24.13;;;6.30;;
54037;SDS011;39954;48.844;9.726;2023-07-22T01:14:33;17.23;;;5.85;;
54037;SDS011;39954;48.844;9.726;2023-07-22T01:15:37;20.10;;;5.93;;
54037;SDS011;39954;48.844;9.726;2023-07-22T01:16:43;35.75;;;7.72;;
54037;SDS011;39954;48.844;9.726;2023-07-22T01:17:46;30.38;;;7.03;;
54037;SDS011;39954;48.844;9.726;2023-07-22T01:18:52;23.88;;;6.55;;
54037;SDS011;39954;48.844;9.726;2023-07-22T01:19:55;27.85;;;7.18;;
54037;SDS011;39954;48.844;9.726;2023-07-22T01:21:00;60.05;;;9.85;;
54037;SDS011;39954;48.844;9.726;2023-07-22T01:22:06;35.10;;;7.82;;
54037;SDS011;39954;48.844;9.726;2023-07-22T01:23:14;43.95;;;8.55;;
54037;SDS011;39954;48.844;9.726;2023-07-22T01:24:17;51.05;;;9.00;;
54037;SDS011;39954;48.844;9.726;2023-07-22T01:25:22;28.30;;;6.63;;
54037;SDS011;39954;48.844;9.726;2023-07-22T01:26:25;27.02;;;6.90;;
54037;SDS011;39954;48.844;9.726;2023-07-22T01:27:30;59.60;;;9.85;;
54037;SDS011;39954;48.844;9.726;2023-07-22T01:28:34;31.92;;;6.53;;
54037;SDS011;39954;48.844;9.726;2023-07-22T01:29:39;37.75;;;8.00;;
54037;SDS011;39954;48.844;9.726;2023-07-22T01:30:41;54.42;;;9.70;;
54037;SDS011;39954;48.844;9.726;2023-07-22T01:31:47;32.40;;;7.13;;
54037;SDS011;39954;48.844;9.726;2023-07-22T01:32:51;33.67;;;6.82;;
54037;SDS011;39954;48.844;9.726;2023-07-22T01:33:56;26.05;;;6.15;;
54037;SDS011;39954;48.844;9.726;2023-07-22T01:35:00;78.32;;;11.13;;
54037;SDS011;39954;48.844;9.726;2023-07-22T01:36:05;42.65;;;7.50;;
54037;SDS011;39954;48.844;9.726;2023-07-22T01:37:07;33.28;;;6.93;;
54037;SDS011;39954;48.844;9.726;2023-07-22T01:38:15;28.75;;;6.35;;
54037;SDS011;39954;48.844;9.726;2023-07-22T01:39:17;16.60;;;5.07;;
54037;SDS011;39954;48.844;9.726;2023-07-22T01:40:24;19.80;;;5.65;;
54037;SDS011;39954;48.844;9.726;2023-07-22T01:41:40;27.48;;;6.45;;
54037;SDS011;39954;48.844;9.726;2023-07-22T01:42:45;50.20;;;8.68;;
54037;SDS011;39954;48.844;9.726;2023-07-22T01:43:48;36.83;;;7.00;;
54037;SDS011;39954;48.844;9.726;2023-07-22T01:44:53;41.47;;;8.18;;
54037;SDS011;39954;48.844;9.726;2023-07-22T01:45:55;29.02;;;6.70;;
54037;SDS011;39954;48.844;9.726;2023-07-22T01:46:57;33.83;;;6.75;;
54037;SDS011;39954;48.844;9.726;2023-07-22T01:48:02;78.20;;;11.20;;
54037;SDS011;39954;48.844;9.726;2023-07-22T01:49:11;51.47;;;8.48;;
54037;SDS011;39954;48.844;9.726;2023-07-22T01:50:16;27.00;;;6.18;;
54037;SDS011;39954;48.844;9.726;2023-07-22T01:51:20;28.90;;;6.30;;
54037;SDS011;39954;48.844;9.726;2023-07-22T01:52:25;23.35;;;6.03;;
54037;SDS011;39954;48.844;9.726;2023-07-22T01:53:30;40.47;;;7.53;;
54037;SDS011;39954;48.844;9.726;2023-07-22T01:54:35;25.52;;;6.13;;
54037;SDS011;39954;48.844;9.726;2023-07-22T01:55:37;43.35;;;7.78;;
54037;SDS011;39954;48.844;9.726;2023-07-22T01:56:42;114.40;;;15.43;;
54037;SDS011;39954;48.844;9.726;2023-07-22T01:57:44;65.15;;;9.88;;
54037;SDS011;39954;48.844;9.726;2023-07-22T01:58:49;51.53;;;8.55;;
54037;SDS011;39954;48.844;9.726;2023-07-22T01:59:51;43.10;;;8.10;;
54037;SDS011;39954;48.844;9.726;2023-07-22T02:00:53;52.47;;;9.20;;
54037;SDS011;39954;48.844;9.726;2023-07-22T02:01:58;39.25;;;7.50;;
54037;SDS011;39954;48.844;9.726;2023-07-22T02:03:01;47.83;;;8.75;;
54037;SDS011;39954;48.844;9.726;2023-07-22T02:04:05;48.15;;;8.60;;
54037;SDS011;39954;48.844;9.726;2023-07-22T02:05:08;56.60;;;9.45;;
54037;SDS011;39954;48.844;9.726;2023-07-22T02:06:14;44.17;;;8.52;;
54037;SDS011;39954;48.844;9.726;2023-07-22T02:07:16;64.80;;;10.32;;
54037;SDS011;39954;48.844;9.726;2023-07-22T02:08:21;45.42;;;8.60;;
54037;SDS011;39954;48.844;9.726;2023-07-22T02:09:26;39.83;;;8.15;;
54037;SDS011;39954;48.844;9.726;2023-07-22T02:10:31;62.05;;;9.60;;
54037;SDS011;39954;48.844;9.726;2023-07-22T02:11:33;63.50;;;9.93;;
54037;SDS011;39954;48.844;9.726;2023-07-22T02:12:38;54.78;;;9.40;;
54037;SDS011;39954;48.844;9.726;2023-07-22T02:13:41;68.15;;;10.25;;
54037;SDS011;39954;48.844;9.726;2023-07-22T02:14:45;38.58;;;7.50;;
54037;SDS011;39954;48.844;9.726;2023-07-22T02:15:48;72.57;;;9.88;;
54037;SDS011;39954;48.844;9.726;2023-07-22T02:16:53;52.15;;;8.40;;
54037;SDS011;39954;48.844;9.726;2023-07-22T02:17:55;45.53;;;7.90;;
54037;SDS011;39954;48.844;9.726;2023-07-22T02:19:00;59.78;;;8.20;;
54037;SDS011;39954;48.844;9.726;2023-07-22T02:20:03;56.65;;;8.93;;
54037;SDS011;39954;48.844;9.726;2023-07-22T02:21:10;56.88;;;8.95;;
54037;SDS011;39954;48.844;9.726;2023-07-22T02:22:12;57.80;;;8.52;;
54037;SDS011;39954;48.844;9.726;2023-07-22T02:23:17;97.72;;;11.10;;
54037;SDS011;39954;48.844;9.726;2023-07-22T02:24:19;33.63;;;6.95;;
54037;SDS011;39954;48.844;9.726;2023-07-22T02:25:27;45.20;;;7.70;;
54037;SDS011;39954;48.844;9.726;2023-07-22T02:26:29;39.83;;;7.10;;
54037;SDS011;39954;48.844;9.726;2023-07-22T02:27:35;39.25;;;7.43;;
54037;SDS011;39954;48.844;9.726;2023-07-22T02:28:37;40.53;;;7.40;;
54037;SDS011;39954;48.844;9.726;2023-07-22T02:29:42;52.88;;;8.13;;
54037;SDS011;39954;48.844;9.726;2023-07-22T02:30:44;69.72;;;9.43;;
54037;SDS011;39954;48.844;9.726;2023-07-22T02:31:49;37.92;;;7.20;;
54037;SDS011;39954;48.844;9.726;2023-07-22T02:32:52;54.53;;;8.38;;
54037;SDS011;39954;48.844;9.726;2023-07-22T02:33:57;92.75;;;10.88;;
54037;SDS011;39954;48.844;9.726;2023-07-22T02:34:59;43.60;;;7.75;;
54037;SDS011;39954;48.844;9.726;2023-07-22T02:36:04;58.42;;;8.82;;
54037;SDS011;39954;48.844;9.726;2023-07-22T02:37:07;59.97;;;8.63;;
54037;SDS011;39954;48.844;9.726;2023-07-22T02:38:11;73.40;;;9.75;;
54037;SDS011;39954;48.844;9.726;2023-07-22T02:39:15;67.57;;;9.43;;
54037;SDS011;39954;48.844;9.726;2023-07-22T02:40:20;64.97;;;8.70;;
54037;SDS011;39954;48.844;9.726;2023-07-22T02:41:25;37.05;;;7.22;;
54037;SDS011;39954;48.844;9.726;2023-07-22T02:42:30;71.53;;;9.93;;
54037;SDS011;39954;48.844;9.726;2023-07-22T02:43:32;39.72;;;7.75;;
54037;SDS011;39954;48.844;9.726;2023-07-22T02:44:36;104.15;;;11.93;;
54037;SDS011;39954;48.844;9.726;2023-07-22T02:45:39;41.92;;;8.20;;
54037;SDS011;39954;48.844;9.726;2023-07-22T02:46:41;35.88;;;7.22;;
54037;SDS011;39954;48.844;9.726;2023-07-22T02:47:46;106.18;;;12.07;;
54037;SDS011;39954;48.844;9.726;2023-07-22T02:48:48;48.03;;;7.97;;
54037;SDS011;39954;48.844;9.726;2023-07-22T02:49:52;53.63;;;8.40;;
54037;SDS011;39954;48.844;9.726;2023-07-22T02:50:55;106.18;;;12.05;;
54037;SDS011;39954;48.844;9.726;2023-07-22T02:51:59;42.95;;;7.88;;
54037;SDS011;39954;48.844;9.726;2023-07-22T02:53:02;43.10;;;7.75;;
54037;SDS011;39954;48.844;9.726;2023-07-22T02:54:07;64.30;;;9.65;;
54037;SDS011;39954;48.844;9.726;2023-07-22T02:55:10;72.78;;;9.93;;
54037;SDS011;39954;48.844;9.726;2023-07-22T02:56:16;78.63;;;10.63;;
54037;SDS011;39954;48.844;9.726;2023-07-22T02:57:21;78.18;;;10.65;;
54037;SDS011;39954;48.844;9.726;2023-07-22T02:58:25;49.58;;;8.10;;
54037;SDS011;39954;48.844;9.726;2023-07-22T02:59:28;55.00;;;9.00;;
54037;SDS011;39954;48.844;9.726;2023-07-22T03:00:32;38.13;;;8.27;;
54037;SDS011;39954;48.844;9.726;2023-07-22T03:01:35;42.58;;;8.23;;
54037;SDS011;39954;48.844;9.726;2023-07-22T03:02:41;75.82;;;10.32;;
54037;SDS011;39954;48.844;9.726;2023-07-22T03:03:43;46.78;;;9.23;;
54037;SDS011;39954;48.844;9.726;2023-07-22T03:04:48;72.53;;;10.23;;
54037;SDS011;39954;48.844;9.726;2023-07-22T03:05:50;47.53;;;8.93;;
54037;SDS011;39954;48.844;9.726;2023-07-22T03:06:55;54.20;;;8.98;;
54037;SDS011;39954;48.844;9.726;2023-07-22T03:08:03;43.30;;;8.38;;
54037;SDS011;39954;48.844;9.726;2023-07-22T03:09:08;89.13;;;11.32;;
54037;SDS011;39954;48.844;9.726;2023-07-22T03:10:10;84.07;;;11.20;;
54037;SDS011;39954;48.844;9.726;2023-07-22T03:11:15;109.60;;;12.65;;
54037;SDS011;39954;48.844;9.726;2023-07-22T03:12:17;88.93;;;11.52;;
54037;SDS011;39954;48.844;9.726;2023-07-22T03:13:25;71.40;;;10.50;;
54037;SDS011;39954;48.844;9.726;2023-07-22T03:14:31;60.90;;;9.68;;
54037;SDS011;39954;48.844;9.726;2023-07-22T03:15:38;74.05;;;10.68;;
54037;SDS011;39954;48.844;9.726;2023-07-22T03:16:41;76.32;;;10.50;;
54037;SDS011;39954;48.844;9.726;2023-07-22T03:17:45;88.88;;;11.27;;
54037;SDS011;39954;48.844;9.726;2023-07-22T03:18:48;80.38;;;11.13;;
54037;SDS011;39954;48.844;9.726;2023-07-22T03:19:52;105.00;;;13.27;;
54037;SDS011;39954;48.844;9.726;2023-07-22T03:20:55;68.97;;;11.43;;
54037;SDS011;39954;48.844;9.726;2023-07-22T03:21:59;77.18;;;11.30;;
54037;SDS011;39954;48.844;9.726;2023-07-22T03:23:02;71.00;;;11.25;;
54037;SDS011;39954;48.844;9.726;2023-07-22T03:24:06;74.93;;;11.57;;
54037;SDS011;39954;48.844;9.726;2023-07-22T03:25:09;82.97;;;11.88;;
54037;SDS011;39954;48.844;9.726;2023-07-22T03:26:13;125.93;;;15.27;;
54037;SDS011;39954;48.844;9.726;2023-07-22T03:27:16;105.28;;;13.30;;
54037;SDS011;39954;48.844;9.726;2023-07-22T03:28:20;85.57;;;11.77;;
54037;SDS011;39954;48.844;9.726;2023-07-22T03:29:25;86.32;;;12.27;;
54037;SDS011;39954;48.844;9.726;2023-07-22T03:30:30;63.70;;;10.55;;
54037;SDS011;39954;48.844;9.726;2023-07-22T03:31:32;62.75;;;10.73;;
54037;SDS011;39954;48.844;9.726;2023-07-22T03:32:37;73.60;;;12.05;;
54037;SDS011;39954;48.844;9.726;2023-07-22T03:33:40;49.50;;;10.75;;
54037;SDS011;39954;48.844;9.726;2023-07-22T03:34:47;45.30;;;10.73;;
54037;SDS011;39954;48.844;9.726;2023-07-22T03:35:49;45.35;;;10.35;;
54037;SDS011;39954;48.844;9.726;2023-07-22T03:36:54;40.53;;;9.60;;
54037;SDS011;39954;48.844;9.726;2023-07-22T03:38:00;39.25;;;9.77;;
54037;SDS011;39954;48.844;9.726;2023-07-22T03:39:02;62.38;;;10.73;;
54037;SDS011;39954;48.844;9.726;2023-07-22T03:40:08;36.58;;;9.65;;
54037;SDS011;39954;48.844;9.726;2023-07-22T03:41:15;95.60;;;12.85;;
54037;SDS011;39954;48.844;9.726;2023-07-22T03:42:20;87.90;;;11.98;;
54037;SDS011;39954;48.844;9.726;2023-07-22T03:43:22;66.95;;;11.88;;
54037;SDS011;39954;48.844;9.726;2023-07-22T03:44:29;53.42;;;10.75;;
54037;SDS011;39954;48.844;9.726;2023-07-22T03:45:31;106.13;;;14.43;;
54037;SDS011;39954;48.844;9.726;2023-07-22T03:46:36;43.42;;;9.57;;
54037;SDS011;39954;48.844;9.726;2023-07-22T03:47:38;52.83;;;11.15;;
54037;SDS011;39954;48.844;9.726;2023-07-22T03:48:41;88.25;;;12.88;;
54037;SDS011;39954;48.844;9.726;2023-07-22T03:49:46;44.38;;;9.77;;
54037;SDS011;39954;48.844;9.726;2023-07-22T03:50:48;35.97;;;9.25;;
54037;SDS011;39954;48.844;9.726;2023-07-22T03:52:06;84.00;;;12.15;;
54037;SDS011;39954;48.844;9.726;2023-07-22T03:53:09;64.53;;;10.63;;
54037;SDS011;39954;48.844;9.726;2023-07-22T03:54:13;90.20;;;12.52;;
54037;SDS011;39954;48.844;9.726;2023-07-22T03:55:16;188.35;;;17.67;;
54037;SDS011;39954;48.844;9.726;2023-07-22T03:56:18;81.43;;;11.70;;
54037;SDS011;39954;48.844;9.726;2023-07-22T03:57:25;95.70;;;13.13;;
54037;SDS011;39954;48.844;9.726;2023-07-22T03:58:28;93.55;;;12.85;;
54037;SDS011;39954;48.844;9.726;2023-07-22T03:59:35;64.07;;;11.70;;
54037;SDS011;39954;48.844;9.726;2023-07-22T04:00:37;61.97;;;10.85;;
54037;SDS011;39954;48.844;9.726;2023-07-22T04:01:42;73.53;;;12.20;;
54037;SDS011;39954;48.844;9.726;2023-07-22T04:02:45;98.82;;;13.77;;
54037;SDS011;39954;48.844;9.726;2023-07-22T04:03:49;66.93;;;11.05;;
54037;SDS011;39954;48.844;9.726;2023-07-22T04:04:52;146.82;;;15.90;;
54037;SDS011;39954;48.844;9.726;2023-07-22T04:05:58;57.22;;;11.25;;
54037;SDS011;39954;48.844;9.726;2023-07-22T04:07:00;84.60;;;12.73;;
54037;SDS011;39954;48.844;9.726;2023-07-22T04:08:09;101.93;;;13.45;;
54037;SDS011;39954;48.844;9.726;2023-07-22T04:09:11;77.13;;;12.70;;
54037;SDS011;39954;48.844;9.726;2023-07-22T04:10:16;147.25;;;16.77;;
54037;SDS011;39954;48.844;9.726;2023-07-22T04:11:18;143.82;;;18.13;;
54037;SDS011;39954;48.844;9.726;2023-07-22T04:12:23;119.00;;;15.77;;
54037;SDS011;39954;48.844;9.726;2023-07-22T04:13:25;141.63;;;15.90;;
54037;SDS011;39954;48.844;9.726;2023-07-22T04:14:31;76.90;;;13.18;;
54037;SDS011;39954;48.844;9.726;2023-07-22T04:15:36;98.07;;;14.35;;
54037;SDS011;39954;48.844;9.726;2023-07-22T04:16:40;80.65;;;13.90;;
54037;SDS011;39954;48.844;9.726;2023-07-22T04:17:43;75.72;;;14.20;;
54037;SDS011;39954;48.844;9.726;2023-07-22T04:18:48;71.65;;;14.10;;
54037;SDS011;39954;48.844;9.726;2023-07-22T04:19:50;90.38;;;16.88;;
54037;SDS011;39954;48.844;9.726;2023-07-22T04:20:55;68.35;;;15.63;;
54037;SDS011;39954;48.844;9.726;2023-07-22T04:22:00;62.47;;;14.98;;
54037;SDS011;39954;48.844;9.726;2023-07-22T04:23:05;60.63;;;14.95;;
54037;SDS011;39954;48.844;9.726;2023-07-22T04:24:11;49.60;;;13.68;;
54037;SDS011;39954;48.844;9.726;2023-07-22T04:25:13;48.60;;;14.43;;
54037;SDS011;39954;48.844;9.726;2023-07-22T04:26:18;62.00;;;14.38;;
54037;SDS011;39954;48.844;9.726;2023-07-22T04:27:21;67.65;;;15.15;;
54037;SDS011;39954;48.844;9.726;2023-07-22T04:28:25;53.50;;;14.65;;
54037;SDS011;39954;48.844;9.726;2023-07-22T04:29:28;61.47;;;14.18;;
54037;SDS011;39954;48.844;9.726;2023-07-22T04:30:30;72.10;;;13.82;;
54037;SDS011;39954;48.844;9.726;2023-07-22T04:31:38;40.70;;;13.45;;
54037;SDS011;39954;48.844;9.726;2023-07-22T04:32:40;47.65;;;13.25;;
54037;SDS011;39954;48.844;9.726;2023-07-22T04:33:45;49.30;;;13.65;;
54037;SDS011;39954;48.844;9.726;2023-07-22T04:34:47;41.65;;;12.82;;
54037;SDS011;39954;48.844;9.726;2023-07-22T04:35:53;49.03;;;13.57;;
54037;SDS011;39954;48.844;9.726;2023-07-22T04:37:02;52.88;;;13.88;;
54037;SDS011;39954;48.844;9.726;2023-07-22T04:38:08;62.80;;;12.57;;
54037;SDS011;39954;48.844;9.726;2023-07-22T04:39:10;37.28;;;12.00;;
54037;SDS011;39954;48.844;9.726;2023-07-22T04:40:15;41.60;;;12.52;;
54037;SDS011;39954;48.844;9.726;2023-07-22T04:41:18;59.60;;;12.85;;
54037;SDS011;39954;48.844;9.726;2023-07-22T04:42:23;103.88;;;15.32;;
54037;SDS011;39954;48.844;9.726;2023-07-22T04:43:25;77.85;;;13.82;;
54037;SDS011;39954;48.844;9.726;2023-07-22T04:44:30;109.28;;;15.43;;
54037;SDS011;39954;48.844;9.726;2023-07-22T04:45:32;71.28;;;13.07;;
54037;SDS011;39954;48.844;9.726;2023-07-22T04:46:39;45.85;;;11.40;;
54037;SDS011;39954;48.844;9.726;2023-07-22T04:47:42;87.57;;;13.80;;
54037;SDS011;39954;48.844;9.726;2023-07-22T04:48:48;56.60;;;11.15;;
54037;SDS011;39954;48.844;9.726;2023-07-22T04:49:51;33.80;;;9.00;;
54037;SDS011;39954;48.844;9.726;2023-07-22T04:50:56;125.57;;;15.55;;
54037;SDS011;39954;48.844;9.726;2023-07-22T04:51:58;60.38;;;10.70;;
54037;SDS011;39954;48.844;9.726;2023-07-22T04:53:03;49.85;;;10.07;;
54037;SDS011;39954;48.844;9.726;2023-07-22T04:54:05;59.55;;;9.95;;
54037;SDS011;39954;48.844;9.726;2023-07-22T04:55:10;72.95;;;10.27;;
54037;SDS011;39954;48.844;9.726;2023-07-22T04:56:13;52.20;;;8.90;;
54037;SDS011;39954;48.844;9.726;2023-07-22T04:57:18;59.97;;;8.95;;
54037;SDS011;39954;48.844;9.726;2023-07-22T04:58:20;65.47;;;9.93;;
54037;SDS011;39954;48.844;9.726;2023-07-22T04:59:25;80.38;;;10.18;;
54037;SDS011;39954;48.844;9.726;2023-07-22T05:00:27;107.68;;;12.38;;
54037;SDS011;39954;48.844;9.726;2023-07-22T05:01:33;76.35;;;10.02;;
54037;SDS011;39954;48.844;9.726;2023-07-22T05:02:38;59.35;;;9.57;;
54037;SDS011;39954;48.844;9.726;2023-07-22T05:03:43;104.00;;;11.77;;
54037;SDS011;39954;48.844;9.726;2023-07-22T05:04:45;78.00;;;10.02;;
54037;SDS011;39954;48.844;9.726;2023-07-22T05:05:49;48.90;;;8.07;;
54037;SDS011;39954;48.844;9.726;2023-07-22T05:06:52;73.25;;;9.48;;
54037;SDS011;39954;48.844;9.726;2023-07-22T05:07:56;48.53;;;7.65;;
54037;SDS011;39954;48.844;9.726;2023-07-22T05:08:59;61.75;;;8.35;;
54037;SDS011;39954;48.844;9.726;2023-07-22T05:10:05;41.20;;;7.55;;
54037;SDS011;39954;48.844;9.726;2023-07-22T05:11:13;71.95;;;9.55;;
54037;SDS011;39954;48.844;9.726;2023-07-22T05:12:19;91.45;;;9.57;;
54037;SDS011;39954;48.844;9.726;2023-07-22T05:13:22;90.15;;;10.02;;
54037;SDS011;39954;48.844;9.726;2023-07-22T05:14:27;59.80;;;10.18;;
54037;SDS011;39954;48.844;9.726;2023-07-22T05:15:29;65.78;;;10.43;;
54037;SDS011;39954;48.844;9.726;2023-07-22T05:16:34;70.70;;;10.77;;
54037;SDS011;39954;48.844;9.726;2023-07-22T05:17:39;46.08;;;8.48;;
54037;SDS011;39954;48.844;9.726;2023-07-22T05:18:44;43.58;;;8.10;;
54037;SDS011;39954;48.844;9.726;2023-07-22T05:19:46;51.85;;;9.20;;
54037;SDS011;39954;48.844;9.726;2023-07-22T05:20:52;51.50;;;9.15;;
54037;SDS011;39954;48.844;9.726;2023-07-22T05:21:54;45.58;;;8.43;;
54037;SDS011;39954;48.844;9.726;2023-07-22T05:22:59;52.00;;;8.85;;
54037;SDS011;39954;48.844;9.726;2023-07-22T05:24:01;44.10;;;7.50;;
54037;SDS011;39954;48.844;9.726;2023-07-22T05:25:06;45.20;;;8.10;;
54037;SDS011;39954;48.844;9.726;2023-07-22T05:26:09;58.50;;;9.20;;
54037;SDS011;39954;48.844;9.726;2023-07-22T05:27:14;29.98;;;7.25;;
54037;SDS011;39954;48.844;9.726;2023-07-22T05:28:16;38.38;;;7.40;;
54037;SDS011;39954;48.844;9.726;2023-07-22T05:29:25;56.47;;;8.52;;
54037;SDS011;39954;48.844;9.726;2023-07-22T05:30:27;74.72;;;10.50;;
54037;SDS011;39954;48.844;9.726;2023-07-22T05:31:36;58.30;;;8.70;;
54037;SDS011;39954;48.844;9.726;2023-07-22T05:32:41;63.75;;;9.55;;
54037;SDS011;39954;48.844;9.726;2023-07-22T05:33:46;31.48;;;6.55;;
54037;SDS011;39954;48.844;9.726;2023-07-22T05:34:48;35.03;;;7.13;;
54037;SDS011;39954;48.844;9.726;2023-07-22T05:35:53;62.20;;;9.52;;
54037;SDS011;39954;48.844;9.726;2023-07-22T05:36:55;43.22;;;7.65;;
54037;SDS011;39954;48.844;9.726;2023-07-22T05:38:00;36.33;;;6.88;;
54037;SDS011;39954;48.844;9.726;2023-07-22T05:39:05;57.53;;;8.40;;
54037;SDS011;39954;48.844;9.726;2023-07-22T05:40:10;62.35;;;8.45;;
54037;SDS011;39954;48.844;9.726;2023-07-22T05:41:13;47.38;;;7.47;;
54037;SDS011;39954;48.844;9.726;2023-07-22T05:42:17;56.00;;;7.75;;
54037;SDS011;39954;48.844;9.726;2023-07-22T05:43:20;33.55;;;5.85;;
54037;SDS011;39954;48.844;9.726;2023-07-22T05:44:25;57.17;;;8.02;;
54037;SDS011;39954;48.844;9.726;2023-07-22T05:45:27;57.22;;;8.18;;
54037;SDS011;39954;48.844;9.726;2023-07-22T05:46:35;80.18;;;9.27;;
54037;SDS011;39954;48.844;9.726;2023-07-22T05:47:37;64.95;;;8.13;;
54037;SDS011;39954;48.844;9.726;2023-07-22T05:48:44;45.53;;;6.20;;
54037;SDS011;39954;48.844;9.726;2023-07-22T05:49:47;44.17;;;6.38;;
54037;SDS011;39954;48.844;9.726;2023-07-22T05:50:51;55.92;;;7.35;;
54037;SDS011;39954;48.844;9.726;2023-07-22T05:51:54;68.22;;;8.65;;
54037;SDS011;39954;48.844;9.726;2023-07-22T05:52:58;65.68;;;8.13;;
54037;SDS011;39954;48.844;9.726;2023-07-22T05:54:01;47.63;;;6.50;;
54037;SDS011;39954;48.844;9.726;2023-07-22T05:55:06;38.22;;;6.22;;
54037;SDS011;39954;48.844;9.726;2023-07-22T05:56:09;61.03;;;7.55;;
54037;SDS011;39954;48.844;9.726;2023-07-22T05:57:14;32.13;;;5.32;;
54037;SDS011;39954;48.844;9.726;2023-07-22T05:58:16;85.65;;;9.38;;
54037;SDS011;39954;48.844;9.726;2023-07-22T05:59:19;41.65;;;5.70;;
54037;SDS011;39954;48.844;9.726;2023-07-22T06:00:24;67.32;;;7.75;;
54037;SDS011;39954;48.844;9.726;2023-07-22T06:01:26;72.05;;;7.85;;
54037;SDS011;39954;48.844;9.726;2023-07-22T06:02:31;94.95;;;9.23;;
54037;SDS011;39954;48.844;9.726;2023-07-22T06:03:34;88.68;;;8.73;;
54037;SDS011;39954;48.844;9.726;2023-07-22T06:04:41;73.10;;;8.70;;
54037;SDS011;39954;48.844;9.726;2023-07-22T06:05:43;48.17;;;6.65;;
54037;SDS011;39954;48.844;9.726;2023-07-22T06:06:48;42.72;;;7.40;;
54037;SDS011;39954;48.844;9.726;2023-07-22T06:07:50;47.75;;;10.40;;
54037;SDS011;39954;48.844;9.726;2023-07-22T06:08:56;57.20;;;7.90;;
54037;SDS011;39954;48.844;9.726;2023-07-22T06:09:58;75.10;;;18.80;;
54037;SDS011;39954;48.844;9.726;2023-07-22T06:11:00;92.00;;;14.00;;
54037;SDS011;39954;48.844;9.726;2023-07-22T06:12:06;114.35;;;25.52;;
54037;SDS011;39954;48.844;9.726;2023-07-22T06:13:09;38.72;;;9.40;;
54037;SDS011;39954;48.844;9.726;2023-07-22T06:14:14;39.67;;;6.90;;
54037;SDS011;39954;48.844;9.726;2023-07-22T06:15:16;45.40;;;6.88;;
54037;SDS011;39954;48.844;9.726;2023-07-22T06:16:21;49.58;;;6.55;;
54037;SDS011;39954;48.844;9.726;2023-07-22T06:17:23;96.22;;;9.85;;
54037;SDS011;39954;48.844;9.726;2023-07-22T06:18:28;114.78;;;11.45;;